sensor_id;sensor_type;location;lat;lon;timestamp;P1;durP1;ratioP1;P2;durP2;ratioP2
21170;SDS011;10743;52.160;20.910;2022-11-20T00:01:30;55.80;;;21.50;;
21170;SDS011;10743;52.160;20.910;2022-11-20T00:03:57;54.23;;;20.83;;
21170;SDS011;10743;52.160;20.910;2022-11-20T00:06:25;46.50;;;18.93;;
21170;SDS011;10743;52.160;20.910;2022-11-20T00:08:54;47.97;;;19.90;;
21170;SDS011;10743;52.160;20.910;2022-11-20T00:11:23;52.50;;;20.13;;
21170;SDS011;10743;52.160;20.910;2022-11-20T00:13:53;52.30;;;20.37;;
21170;SDS011;10743;52.160;20.910;2022-11-20T00:16:23;59.23;;;21.07;;
21170;SDS011;10743;52.160;20.910;2022-11-20T00:18:53;59.40;;;22.80;;
21170;SDS011;10743;52.160;20.910;2022-11-20T00:21:21;52.40;;;20.03;;
21170;SDS011;10743;52.160;20.910;2022-11-20T00:23:53;57.70;;;22.03;;
21170;SDS011;10743;52.160;20.910;2022-11-20T00:26:22;52.27;;;20.73;;
21170;SDS011;10743;52.160;20.910;2022-11-20T00:28:55;51.83;;;21.97;;
21170;SDS011;10743;52.160;20.910;2022-11-20T00:31:24;55.77;;;21.80;;
21170;SDS011;10743;52.160;20.910;2022-11-20T00:33:52;49.20;;;21.17;;
21170;SDS011;10743;52.160;20.910;2022-11-20T00:36:19;48.70;;;20.20;;
21170;SDS011;10743;52.160;20.910;2022-11-20T00:38:55;54.07;;;21.93;;
21170;SDS011;10743;52.160;20.910;2022-11-20T00:41:24;50.33;;;20.63;;
21170;SDS011;10743;52.160;20.910;2022-11-20T00:43:53;56.13;;;20.03;;
21170;SDS011;10743;52.160;20.910;2022-11-20T00:46:22;51.90;;;21.80;;
21170;SDS011;10743;52.160;20.910;2022-11-20T00:48:51;55.00;;;21.40;;
21170;SDS011;10743;52.160;20.910;2022-11-20T00:51:19;49.70;;;21.87;;
21170;SDS011;10743;52.160;20.910;2022-11-20T00:53:48;52.50;;;21.97;;
21170;SDS011;10743;52.160;20.910;2022-11-20T00:56:16;51.30;;;21.43;;
21170;SDS011;10743;52.160;20.910;2022-11-20T00:58:45;53.77;;;21.63;;
21170;SDS011;10743;52.160;20.910;2022-11-20T01:01:15;48.00;;;20.27;;
21170;SDS011;10743;52.160;20.910;2022-11-20T01:03:46;54.60;;;22.77;;
21170;SDS011;10743;52.160;20.910;2022-11-20T01:06:17;47.50;;;21.27;;
21170;SDS011;10743;52.160;20.910;2022-11-20T01:08:51;51.50;;;22.53;;
21170;SDS011;10743;52.160;20.910;2022-11-20T01:11:27;60.23;;;22.37;;
21170;SDS011;10743;52.160;20.910;2022-11-20T01:13:57;52.97;;;21.13;;
21170;SDS011;10743;52.160;20.910;2022-11-20T01:16:33;60.70;;;21.20;;
21170;SDS011;10743;52.160;20.910;2022-11-20T01:19:03;57.53;;;23.27;;
21170;SDS011;10743;52.160;20.910;2022-11-20T01:21:37;52.23;;;20.17;;
21170;SDS011;10743;52.160;20.910;2022-11-20T01:24:06;48.53;;;20.63;;
21170;SDS011;10743;52.160;20.910;2022-11-20T01:26:36;54.73;;;21.30;;
21170;SDS011;10743;52.160;20.910;2022-11-20T01:29:06;44.90;;;18.70;;
21170;SDS011;10743;52.160;20.910;2022-11-20T01:31:36;45.30;;;20.17;;
21170;SDS011;10743;52.160;20.910;2022-11-20T01:34:04;50.50;;;20.67;;
21170;SDS011;10743;52.160;20.910;2022-11-20T01:36:34;45.17;;;19.97;;
21170;SDS011;10743;52.160;20.910;2022-11-20T01:39:04;49.20;;;20.60;;
21170;SDS011;10743;52.160;20.910;2022-11-20T01:41:36;49.63;;;19.00;;
21170;SDS011;10743;52.160;20.910;2022-11-20T01:44:39;53.47;;;21.20;;
21170;SDS011;10743;52.160;20.910;2022-11-20T01:47:30;56.70;;;22.53;;
21170;SDS011;10743;52.160;20.910;2022-11-20T01:50:22;51.60;;;20.53;;
21170;SDS011;10743;52.160;20.910;2022-11-20T01:52:56;47.20;;;19.97;;
21170;SDS011;10743;52.160;20.910;2022-11-20T01:55:30;50.60;;;19.60;;
21170;SDS011;10743;52.160;20.910;2022-11-20T01:58:03;52.27;;;20.53;;
21170;SDS011;10743;52.160;20.910;2022-11-20T02:00:31;56.07;;;20.80;;
21170;SDS011;10743;52.160;20.910;2022-11-20T02:02:59;47.53;;;19.70;;
21170;SDS011;10743;52.160;20.910;2022-11-20T02:05:32;56.30;;;21.37;;
21170;SDS011;10743;52.160;20.910;2022-11-20T02:08:08;54.33;;;20.53;;
21170;SDS011;10743;52.160;20.910;2022-11-20T02:10:35;46.70;;;18.90;;
21170;SDS011;10743;52.160;20.910;2022-11-20T02:13:02;45.93;;;18.50;;
21170;SDS011;10743;52.160;20.910;2022-11-20T02:15:48;42.17;;;19.77;;
21170;SDS011;10743;52.160;20.910;2022-11-20T02:18:16;59.87;;;21.27;;
21170;SDS011;10743;52.160;20.910;2022-11-20T02:20:46;49.47;;;19.30;;
21170;SDS011;10743;52.160;20.910;2022-11-20T02:25:54;52.10;;;19.33;;
21170;SDS011;10743;52.160;20.910;2022-11-20T02:28:22;51.30;;;19.63;;
21170;SDS011;10743;52.160;20.910;2022-11-20T02:30:49;49.90;;;19.90;;
21170;SDS011;10743;52.160;20.910;2022-11-20T02:33:16;51.20;;;19.17;;
21170;SDS011;10743;52.160;20.910;2022-11-20T02:35:44;46.20;;;19.10;;
21170;SDS011;10743;52.160;20.910;2022-11-20T02:38:12;45.33;;;19.63;;
21170;SDS011;10743;52.160;20.910;2022-11-20T02:40:40;48.53;;;18.53;;
21170;SDS011;10743;52.160;20.910;2022-11-20T02:43:08;51.23;;;20.07;;
21170;SDS011;10743;52.160;20.910;2022-11-20T02:45:35;54.97;;;20.60;;
21170;SDS011;10743;52.160;20.910;2022-11-20T02:48:03;46.63;;;18.93;;
21170;SDS011;10743;52.160;20.910;2022-11-20T02:50:30;55.83;;;20.80;;
21170;SDS011;10743;52.160;20.910;2022-11-20T02:52:57;50.57;;;20.60;;
21170;SDS011;10743;52.160;20.910;2022-11-20T02:55:24;54.10;;;19.87;;
21170;SDS011;10743;52.160;20.910;2022-11-20T02:57:51;49.67;;;20.63;;
21170;SDS011;10743;52.160;20.910;2022-11-20T03:00:18;50.93;;;20.90;;
21170;SDS011;10743;52.160;20.910;2022-11-20T03:02:45;66.53;;;23.70;;
21170;SDS011;10743;52.160;20.910;2022-11-20T03:05:12;56.37;;;21.77;;
21170;SDS011;10743;52.160;20.910;2022-11-20T03:07:39;55.43;;;19.80;;
21170;SDS011;10743;52.160;20.910;2022-11-20T03:10:06;58.93;;;20.80;;
21170;SDS011;10743;52.160;20.910;2022-11-20T03:12:34;55.93;;;19.60;;
21170;SDS011;10743;52.160;20.910;2022-11-20T03:15:00;44.50;;;19.50;;
21170;SDS011;10743;52.160;20.910;2022-11-20T03:17:27;51.30;;;20.20;;
21170;SDS011;10743;52.160;20.910;2022-11-20T03:19:55;46.63;;;18.80;;
21170;SDS011;10743;52.160;20.910;2022-11-20T03:22:22;48.47;;;19.77;;
21170;SDS011;10743;52.160;20.910;2022-11-20T03:24:49;51.33;;;20.00;;
21170;SDS011;10743;52.160;20.910;2022-11-20T03:27:17;46.27;;;18.03;;
21170;SDS011;10743;52.160;20.910;2022-11-20T03:29:44;49.17;;;19.27;;
21170;SDS011;10743;52.160;20.910;2022-11-20T03:32:11;48.83;;;19.00;;
21170;SDS011;10743;52.160;20.910;2022-11-20T03:34:38;42.20;;;18.93;;
21170;SDS011;10743;52.160;20.910;2022-11-20T03:37:04;44.20;;;19.20;;
21170;SDS011;10743;52.160;20.910;2022-11-20T03:39:32;45.87;;;18.70;;
21170;SDS011;10743;52.160;20.910;2022-11-20T03:41:59;48.80;;;20.37;;
21170;SDS011;10743;52.160;20.910;2022-11-20T03:44:26;52.27;;;22.33;;
21170;SDS011;10743;52.160;20.910;2022-11-20T03:46:53;45.50;;;18.17;;
21170;SDS011;10743;52.160;20.910;2022-11-20T03:49:19;50.20;;;20.60;;
21170;SDS011;10743;52.160;20.910;2022-11-20T03:51:47;49.53;;;20.57;;
21170;SDS011;10743;52.160;20.910;2022-11-20T03:54:14;50.50;;;19.20;;
21170;SDS011;10743;52.160;20.910;2022-11-20T03:56:41;51.67;;;21.17;;
21170;SDS011;10743;52.160;20.910;2022-11-20T03:59:09;50.87;;;21.13;;
21170;SDS011;10743;52.160;20.910;2022-11-20T04:01:36;50.80;;;20.70;;
21170;SDS011;10743;52.160;20.910;2022-11-20T04:04:04;47.60;;;20.57;;
21170;SDS011;10743;52.160;20.910;2022-11-20T04:06:35;48.77;;;20.07;;
21170;SDS011;10743;52.160;20.910;2022-11-20T04:09:03;46.80;;;20.33;;
21170;SDS011;10743;52.160;20.910;2022-11-20T04:11:35;49.80;;;19.00;;
21170;SDS011;10743;52.160;20.910;2022-11-20T04:14:04;55.53;;;20.90;;
21170;SDS011;10743;52.160;20.910;2022-11-20T04:16:35;54.50;;;21.17;;
21170;SDS011;10743;52.160;20.910;2022-11-20T04:19:04;44.17;;;19.33;;
21170;SDS011;10743;52.160;20.910;2022-11-20T04:21:35;51.10;;;19.57;;
21170;SDS011;10743;52.160;20.910;2022-11-20T04:24:02;53.63;;;19.20;;
21170;SDS011;10743;52.160;20.910;2022-11-20T04:26:30;46.87;;;19.90;;
21170;SDS011;10743;52.160;20.910;2022-11-20T04:28:57;51.63;;;20.60;;
21170;SDS011;10743;52.160;20.910;2022-11-20T04:31:27;43.73;;;20.90;;
21170;SDS011;10743;52.160;20.910;2022-11-20T04:34:01;47.60;;;20.53;;
21170;SDS011;10743;52.160;20.910;2022-11-20T04:36:30;60.47;;;22.33;;
21170;SDS011;10743;52.160;20.910;2022-11-20T04:38:58;49.40;;;18.30;;
21170;SDS011;10743;52.160;20.910;2022-11-20T04:41:31;46.03;;;18.97;;
21170;SDS011;10743;52.160;20.910;2022-11-20T04:44:01;48.93;;;20.50;;
21170;SDS011;10743;52.160;20.910;2022-11-20T04:46:34;48.67;;;19.83;;
21170;SDS011;10743;52.160;20.910;2022-11-20T04:49:04;44.23;;;17.50;;
21170;SDS011;10743;52.160;20.910;2022-11-20T04:51:32;53.33;;;19.70;;
21170;SDS011;10743;52.160;20.910;2022-11-20T04:53:59;50.73;;;19.23;;
21170;SDS011;10743;52.160;20.910;2022-11-20T04:56:27;49.53;;;18.47;;
21170;SDS011;10743;52.160;20.910;2022-11-20T04:58:54;49.77;;;18.20;;
21170;SDS011;10743;52.160;20.910;2022-11-20T05:01:22;43.93;;;19.77;;
21170;SDS011;10743;52.160;20.910;2022-11-20T05:03:51;41.73;;;19.17;;
21170;SDS011;10743;52.160;20.910;2022-11-20T05:06:21;44.77;;;19.10;;
21170;SDS011;10743;52.160;20.910;2022-11-20T05:08:48;47.03;;;19.43;;
21170;SDS011;10743;52.160;20.910;2022-11-20T05:11:17;52.10;;;20.60;;
21170;SDS011;10743;52.160;20.910;2022-11-20T05:13:47;46.73;;;18.53;;
21170;SDS011;10743;52.160;20.910;2022-11-20T05:16:16;54.63;;;18.93;;
21170;SDS011;10743;52.160;20.910;2022-11-20T05:18:52;51.17;;;19.43;;
21170;SDS011;10743;52.160;20.910;2022-11-20T05:21:20;51.30;;;18.80;;
21170;SDS011;10743;52.160;20.910;2022-11-20T05:23:47;46.67;;;19.80;;
21170;SDS011;10743;52.160;20.910;2022-11-20T05:26:18;42.30;;;17.03;;
21170;SDS011;10743;52.160;20.910;2022-11-20T05:28:48;36.30;;;17.53;;
21170;SDS011;10743;52.160;20.910;2022-11-20T05:31:17;40.37;;;17.57;;
21170;SDS011;10743;52.160;20.910;2022-11-20T05:33:53;42.20;;;17.43;;
21170;SDS011;10743;52.160;20.910;2022-11-20T05:36:23;48.67;;;18.73;;
21170;SDS011;10743;52.160;20.910;2022-11-20T05:38:50;45.60;;;16.17;;
21170;SDS011;10743;52.160;20.910;2022-11-20T05:41:23;39.07;;;16.60;;
21170;SDS011;10743;52.160;20.910;2022-11-20T05:43:50;42.30;;;17.40;;
21170;SDS011;10743;52.160;20.910;2022-11-20T05:46:18;43.37;;;17.00;;
21170;SDS011;10743;52.160;20.910;2022-11-20T05:48:53;42.53;;;17.77;;
21170;SDS011;10743;52.160;20.910;2022-11-20T05:51:20;44.77;;;17.00;;
21170;SDS011;10743;52.160;20.910;2022-11-20T05:53:47;47.63;;;19.57;;
21170;SDS011;10743;52.160;20.910;2022-11-20T05:56:16;39.07;;;17.17;;
21170;SDS011;10743;52.160;20.910;2022-11-20T05:58:45;44.80;;;17.17;;
21170;SDS011;10743;52.160;20.910;2022-11-20T06:01:17;39.93;;;16.43;;
21170;SDS011;10743;52.160;20.910;2022-11-20T06:03:49;35.50;;;16.37;;
21170;SDS011;10743;52.160;20.910;2022-11-20T06:06:17;43.03;;;17.40;;
21170;SDS011;10743;52.160;20.910;2022-11-20T06:08:45;45.90;;;18.63;;
21170;SDS011;10743;52.160;20.910;2022-11-20T06:11:13;40.47;;;17.23;;
21170;SDS011;10743;52.160;20.910;2022-11-20T06:13:41;39.50;;;16.40;;
21170;SDS011;10743;52.160;20.910;2022-11-20T06:16:09;45.47;;;17.93;;
21170;SDS011;10743;52.160;20.910;2022-11-20T06:18:37;39.33;;;17.93;;
21170;SDS011;10743;52.160;20.910;2022-11-20T06:21:14;44.97;;;17.70;;
21170;SDS011;10743;52.160;20.910;2022-11-20T06:23:45;41.83;;;17.47;;
21170;SDS011;10743;52.160;20.910;2022-11-20T06:26:13;34.63;;;16.17;;
21170;SDS011;10743;52.160;20.910;2022-11-20T06:28:45;39.23;;;16.87;;
21170;SDS011;10743;52.160;20.910;2022-11-20T06:31:14;42.70;;;18.90;;
21170;SDS011;10743;52.160;20.910;2022-11-20T06:33:43;50.33;;;18.67;;
21170;SDS011;10743;52.160;20.910;2022-11-20T06:36:11;33.00;;;15.33;;
21170;SDS011;10743;52.160;20.910;2022-11-20T06:38:41;46.10;;;16.93;;
21170;SDS011;10743;52.160;20.910;2022-11-20T06:41:12;42.30;;;18.30;;
21170;SDS011;10743;52.160;20.910;2022-11-20T06:43:42;40.97;;;17.97;;
21170;SDS011;10743;52.160;20.910;2022-11-20T06:46:10;39.70;;;16.87;;
21170;SDS011;10743;52.160;20.910;2022-11-20T06:48:38;47.13;;;17.63;;
21170;SDS011;10743;52.160;20.910;2022-11-20T06:51:06;36.97;;;16.97;;
21170;SDS011;10743;52.160;20.910;2022-11-20T06:53:34;48.53;;;18.73;;
21170;SDS011;10743;52.160;20.910;2022-11-20T06:56:02;48.40;;;18.93;;
21170;SDS011;10743;52.160;20.910;2022-11-20T06:58:30;51.47;;;19.53;;
21170;SDS011;10743;52.160;20.910;2022-11-20T07:00:58;48.23;;;18.23;;
21170;SDS011;10743;52.160;20.910;2022-11-20T07:03:36;51.57;;;19.43;;
21170;SDS011;10743;52.160;20.910;2022-11-20T07:06:04;45.77;;;19.57;;
21170;SDS011;10743;52.160;20.910;2022-11-20T07:08:32;46.43;;;19.10;;
21170;SDS011;10743;52.160;20.910;2022-11-20T07:11:00;45.40;;;18.13;;
21170;SDS011;10743;52.160;20.910;2022-11-20T07:13:33;54.20;;;20.37;;
21170;SDS011;10743;52.160;20.910;2022-11-20T07:16:04;45.67;;;19.93;;
21170;SDS011;10743;52.160;20.910;2022-11-20T07:18:33;58.17;;;22.30;;
21170;SDS011;10743;52.160;20.910;2022-11-20T07:21:04;46.53;;;18.80;;
21170;SDS011;10743;52.160;20.910;2022-11-20T07:23:34;42.13;;;16.00;;
21170;SDS011;10743;52.160;20.910;2022-11-20T07:26:02;49.50;;;20.63;;
21170;SDS011;10743;52.160;20.910;2022-11-20T07:28:31;48.87;;;19.87;;
21170;SDS011;10743;52.160;20.910;2022-11-20T07:30:58;43.37;;;17.93;;
21170;SDS011;10743;52.160;20.910;2022-11-20T07:33:25;60.13;;;21.30;;
21170;SDS011;10743;52.160;20.910;2022-11-20T07:35:52;62.83;;;21.30;;
21170;SDS011;10743;52.160;20.910;2022-11-20T07:38:19;46.83;;;19.13;;
21170;SDS011;10743;52.160;20.910;2022-11-20T07:40:46;48.63;;;20.80;;
21170;SDS011;10743;52.160;20.910;2022-11-20T07:43:13;70.60;;;24.53;;
21170;SDS011;10743;52.160;20.910;2022-11-20T07:45:41;52.37;;;18.70;;
21170;SDS011;10743;52.160;20.910;2022-11-20T07:48:08;41.70;;;18.23;;
21170;SDS011;10743;52.160;20.910;2022-11-20T07:50:35;51.03;;;20.13;;
21170;SDS011;10743;52.160;20.910;2022-11-20T07:53:02;51.43;;;20.47;;
21170;SDS011;10743;52.160;20.910;2022-11-20T07:55:30;48.97;;;20.43;;
21170;SDS011;10743;52.160;20.910;2022-11-20T07:57:58;50.80;;;18.80;;
21170;SDS011;10743;52.160;20.910;2022-11-20T08:00:26;59.53;;;22.50;;
21170;SDS011;10743;52.160;20.910;2022-11-20T08:02:53;51.83;;;27.00;;
21170;SDS011;10743;52.160;20.910;2022-11-20T08:05:20;46.47;;;18.03;;
21170;SDS011;10743;52.160;20.910;2022-11-20T08:07:47;50.67;;;19.13;;
21170;SDS011;10743;52.160;20.910;2022-11-20T08:10:15;54.60;;;22.43;;
21170;SDS011;10743;52.160;20.910;2022-11-20T08:12:49;54.63;;;21.97;;
21170;SDS011;10743;52.160;20.910;2022-11-20T08:15:37;56.10;;;27.10;;
21170;SDS011;10743;52.160;20.910;2022-11-20T08:18:06;49.83;;;18.83;;
21170;SDS011;10743;52.160;20.910;2022-11-20T08:20:58;48.80;;;19.57;;
21170;SDS011;10743;52.160;20.910;2022-11-20T08:23:30;56.73;;;20.07;;
21170;SDS011;10743;52.160;20.910;2022-11-20T08:25:57;51.20;;;21.00;;
21170;SDS011;10743;52.160;20.910;2022-11-20T08:28:24;53.23;;;19.80;;
21170;SDS011;10743;52.160;20.910;2022-11-20T08:30:50;50.83;;;19.00;;
21170;SDS011;10743;52.160;20.910;2022-11-20T08:33:17;50.43;;;20.37;;
21170;SDS011;10743;52.160;20.910;2022-11-20T08:35:45;54.23;;;21.80;;
21170;SDS011;10743;52.160;20.910;2022-11-20T08:38:12;53.60;;;21.90;;
21170;SDS011;10743;52.160;20.910;2022-11-20T08:40:39;63.73;;;22.33;;
21170;SDS011;10743;52.160;20.910;2022-11-20T08:43:06;56.47;;;19.90;;
21170;SDS011;10743;52.160;20.910;2022-11-20T08:45:32;48.33;;;20.00;;
21170;SDS011;10743;52.160;20.910;2022-11-20T08:48:01;53.47;;;20.07;;
21170;SDS011;10743;52.160;20.910;2022-11-20T08:50:29;52.17;;;19.53;;
21170;SDS011;10743;52.160;20.910;2022-11-20T08:53:05;54.47;;;20.97;;
21170;SDS011;10743;52.160;20.910;2022-11-20T08:55:32;57.43;;;21.90;;
21170;SDS011;10743;52.160;20.910;2022-11-20T08:58:05;59.77;;;21.87;;
21170;SDS011;10743;52.160;20.910;2022-11-20T09:00:33;48.67;;;20.40;;
21170;SDS011;10743;52.160;20.910;2022-11-20T09:03:00;57.90;;;22.07;;
21170;SDS011;10743;52.160;20.910;2022-11-20T09:05:28;63.87;;;20.97;;
21170;SDS011;10743;52.160;20.910;2022-11-20T09:07:55;55.93;;;21.10;;
21170;SDS011;10743;52.160;20.910;2022-11-20T09:10:23;66.07;;;24.57;;
21170;SDS011;10743;52.160;20.910;2022-11-20T09:12:51;54.87;;;23.17;;
21170;SDS011;10743;52.160;20.910;2022-11-20T09:15:19;59.77;;;22.70;;
21170;SDS011;10743;52.160;20.910;2022-11-20T09:17:56;64.97;;;25.97;;
21170;SDS011;10743;52.160;20.910;2022-11-20T09:20:29;65.37;;;23.43;;
21170;SDS011;10743;52.160;20.910;2022-11-20T09:22:57;64.23;;;22.80;;
21170;SDS011;10743;52.160;20.910;2022-11-20T09:25:24;61.63;;;22.20;;
21170;SDS011;10743;52.160;20.910;2022-11-20T09:27:58;63.40;;;26.73;;
21170;SDS011;10743;52.160;20.910;2022-11-20T09:30:25;59.77;;;21.93;;
21170;SDS011;10743;52.160;20.910;2022-11-20T09:32:53;74.10;;;25.70;;
21170;SDS011;10743;52.160;20.910;2022-11-20T09:35:21;77.07;;;28.07;;
21170;SDS011;10743;52.160;20.910;2022-11-20T09:37:47;80.43;;;31.70;;
21170;SDS011;10743;52.160;20.910;2022-11-20T09:40:28;76.63;;;27.80;;
21170;SDS011;10743;52.160;20.910;2022-11-20T09:45:39;66.13;;;25.50;;
21170;SDS011;10743;52.160;20.910;2022-11-20T09:48:39;69.30;;;26.73;;
21170;SDS011;10743;52.160;20.910;2022-11-20T09:51:27;65.90;;;26.80;;
21170;SDS011;10743;52.160;20.910;2022-11-20T09:54:17;79.97;;;25.40;;
21170;SDS011;10743;52.160;20.910;2022-11-20T09:57:13;61.97;;;25.50;;
21170;SDS011;10743;52.160;20.910;2022-11-20T09:59:51;64.63;;;24.13;;
21170;SDS011;10743;52.160;20.910;2022-11-20T10:02:37;65.07;;;23.93;;
21170;SDS011;10743;52.160;20.910;2022-11-20T10:05:20;62.80;;;23.00;;
21170;SDS011;10743;52.160;20.910;2022-11-20T10:11:13;70.33;;;25.23;;
21170;SDS011;10743;52.160;20.910;2022-11-20T10:13:57;68.70;;;26.97;;
21170;SDS011;10743;52.160;20.910;2022-11-20T10:20:14;68.57;;;26.80;;
21170;SDS011;10743;52.160;20.910;2022-11-20T10:22:54;63.10;;;25.03;;
21170;SDS011;10743;52.160;20.910;2022-11-20T10:26:00;72.67;;;27.37;;
21170;SDS011;10743;52.160;20.910;2022-11-20T10:28:43;63.23;;;24.53;;
21170;SDS011;10743;52.160;20.910;2022-11-20T10:31:31;75.60;;;27.40;;
21170;SDS011;10743;52.160;20.910;2022-11-20T10:34:07;50.37;;;22.03;;
21170;SDS011;10743;52.160;20.910;2022-11-20T10:36:58;65.57;;;24.70;;
21170;SDS011;10743;52.160;20.910;2022-11-20T10:39:46;67.53;;;25.27;;
21170;SDS011;10743;52.160;20.910;2022-11-20T10:42:37;64.30;;;24.73;;
21170;SDS011;10743;52.160;20.910;2022-11-20T10:45:15;63.00;;;24.70;;
21170;SDS011;10743;52.160;20.910;2022-11-20T10:47:56;73.23;;;27.60;;
21170;SDS011;10743;52.160;20.910;2022-11-20T10:50:34;73.10;;;23.77;;
21170;SDS011;10743;52.160;20.910;2022-11-20T10:56:05;56.57;;;22.43;;
21170;SDS011;10743;52.160;20.910;2022-11-20T10:58:52;54.70;;;20.87;;
21170;SDS011;10743;52.160;20.910;2022-11-20T11:01:39;66.20;;;24.63;;
21170;SDS011;10743;52.160;20.910;2022-11-20T11:07:05;52.43;;;20.63;;
21170;SDS011;10743;52.160;20.910;2022-11-20T11:09:43;59.27;;;22.20;;
21170;SDS011;10743;52.160;20.910;2022-11-20T11:12:16;48.60;;;20.07;;
21170;SDS011;10743;52.160;20.910;2022-11-20T11:14:45;53.70;;;20.20;;
21170;SDS011;10743;52.160;20.910;2022-11-20T11:17:27;48.50;;;18.87;;
21170;SDS011;10743;52.160;20.910;2022-11-20T11:22:43;48.73;;;19.10;;
21170;SDS011;10743;52.160;20.910;2022-11-20T11:25:23;50.33;;;19.13;;
21170;SDS011;10743;52.160;20.910;2022-11-20T11:27:52;54.53;;;20.57;;
21170;SDS011;10743;52.160;20.910;2022-11-20T11:30:24;46.67;;;18.47;;
21170;SDS011;10743;52.160;20.910;2022-11-20T11:33:02;53.63;;;18.80;;
21170;SDS011;10743;52.160;20.910;2022-11-20T11:35:49;51.93;;;19.10;;
21170;SDS011;10743;52.160;20.910;2022-11-20T11:38:35;42.97;;;18.97;;
21170;SDS011;10743;52.160;20.910;2022-11-20T11:41:06;45.23;;;18.63;;
21170;SDS011;10743;52.160;20.910;2022-11-20T11:43:39;47.63;;;18.37;;
21170;SDS011;10743;52.160;20.910;2022-11-20T11:46:38;42.97;;;17.47;;
21170;SDS011;10743;52.160;20.910;2022-11-20T11:49:14;50.17;;;18.80;;
21170;SDS011;10743;52.160;20.910;2022-11-20T11:51:49;46.20;;;17.63;;
21170;SDS011;10743;52.160;20.910;2022-11-20T11:54:51;53.00;;;18.33;;
21170;SDS011;10743;52.160;20.910;2022-11-20T11:57:28;42.83;;;17.03;;
21170;SDS011;10743;52.160;20.910;2022-11-20T12:00:14;46.40;;;16.90;;
21170;SDS011;10743;52.160;20.910;2022-11-20T12:05:17;47.27;;;17.93;;
21170;SDS011;10743;52.160;20.910;2022-11-20T12:07:58;50.90;;;18.93;;
21170;SDS011;10743;52.160;20.910;2022-11-20T12:13:44;46.77;;;17.80;;
21170;SDS011;10743;52.160;20.910;2022-11-20T12:16:21;43.43;;;18.17;;
21170;SDS011;10743;52.160;20.910;2022-11-20T12:18:49;48.20;;;17.27;;
21170;SDS011;10743;52.160;20.910;2022-11-20T12:27:05;43.20;;;16.20;;
21170;SDS011;10743;52.160;20.910;2022-11-20T12:45:30;46.93;;;17.67;;
21170;SDS011;10743;52.160;20.910;2022-11-20T12:51:44;59.57;;;20.70;;
21170;SDS011;10743;52.160;20.910;2022-11-20T13:00:20;54.00;;;19.57;;
21170;SDS011;10743;52.160;20.910;2022-11-20T13:02:56;49.67;;;19.37;;
21170;SDS011;10743;52.160;20.910;2022-11-20T13:05:48;57.37;;;19.70;;
21170;SDS011;10743;52.160;20.910;2022-11-20T13:08:53;59.60;;;20.63;;
21170;SDS011;10743;52.160;20.910;2022-11-20T13:11:27;61.43;;;22.37;;
21170;SDS011;10743;52.160;20.910;2022-11-20T13:14:24;47.37;;;17.87;;
21170;SDS011;10743;52.160;20.910;2022-11-20T13:19:59;72.90;;;28.57;;
21170;SDS011;10743;52.160;20.910;2022-11-20T13:22:28;62.40;;;23.07;;
21170;SDS011;10743;52.160;20.910;2022-11-20T13:25:22;57.53;;;21.23;;
21170;SDS011;10743;52.160;20.910;2022-11-20T13:30:35;56.37;;;19.63;;
21170;SDS011;10743;52.160;20.910;2022-11-20T13:36:05;56.63;;;20.33;;
21170;SDS011;10743;52.160;20.910;2022-11-20T13:38:46;44.80;;;17.33;;
21170;SDS011;10743;52.160;20.910;2022-11-20T13:41:30;47.80;;;18.70;;
21170;SDS011;10743;52.160;20.910;2022-11-20T13:44:13;47.63;;;17.73;;
21170;SDS011;10743;52.160;20.910;2022-11-20T13:46:50;57.33;;;20.50;;
21170;SDS011;10743;52.160;20.910;2022-11-20T13:57:56;52.80;;;20.30;;
21170;SDS011;10743;52.160;20.910;2022-11-20T14:03:42;54.87;;;21.03;;
21170;SDS011;10743;52.160;20.910;2022-11-20T14:06:30;59.67;;;21.23;;
21170;SDS011;10743;52.160;20.910;2022-11-20T14:09:00;50.47;;;19.80;;
21170;SDS011;10743;52.160;20.910;2022-11-20T14:11:28;51.30;;;19.10;;
21170;SDS011;10743;52.160;20.910;2022-11-20T14:13:58;53.37;;;19.00;;
21170;SDS011;10743;52.160;20.910;2022-11-20T14:16:42;48.10;;;18.47;;
21170;SDS011;10743;52.160;20.910;2022-11-20T14:21:51;49.37;;;19.20;;
21170;SDS011;10743;52.160;20.910;2022-11-20T14:24:22;55.17;;;19.77;;
21170;SDS011;10743;52.160;20.910;2022-11-20T14:26:51;49.80;;;19.13;;
21170;SDS011;10743;52.160;20.910;2022-11-20T14:29:27;49.27;;;19.70;;
21170;SDS011;10743;52.160;20.910;2022-11-20T14:32:00;57.67;;;22.03;;
21170;SDS011;10743;52.160;20.910;2022-11-20T14:34:29;73.23;;;23.20;;
21170;SDS011;10743;52.160;20.910;2022-11-20T14:36:59;53.20;;;20.93;;
21170;SDS011;10743;52.160;20.910;2022-11-20T14:39:30;63.13;;;24.30;;
21170;SDS011;10743;52.160;20.910;2022-11-20T14:42:10;65.97;;;25.27;;
21170;SDS011;10743;52.160;20.910;2022-11-20T14:44:43;74.10;;;26.73;;
21170;SDS011;10743;52.160;20.910;2022-11-20T14:47:15;64.27;;;26.33;;
21170;SDS011;10743;52.160;20.910;2022-11-20T14:49:48;65.80;;;24.67;;
21170;SDS011;10743;52.160;20.910;2022-11-20T14:52:18;58.80;;;23.77;;
21170;SDS011;10743;52.160;20.910;2022-11-20T14:54:56;70.47;;;24.37;;
21170;SDS011;10743;52.160;20.910;2022-11-20T14:57:31;58.90;;;23.07;;
21170;SDS011;10743;52.160;20.910;2022-11-20T15:00:19;58.20;;;23.30;;
21170;SDS011;10743;52.160;20.910;2022-11-20T15:02:48;65.23;;;24.37;;
21170;SDS011;10743;52.160;20.910;2022-11-20T15:05:17;64.53;;;21.83;;
21170;SDS011;10743;52.160;20.910;2022-11-20T15:07:48;57.87;;;23.00;;
21170;SDS011;10743;52.160;20.910;2022-11-20T15:10:32;60.53;;;22.00;;
21170;SDS011;10743;52.160;20.910;2022-11-20T15:13:00;65.03;;;23.80;;
21170;SDS011;10743;52.160;20.910;2022-11-20T15:15:46;75.33;;;25.47;;
21170;SDS011;10743;52.160;20.910;2022-11-20T15:18:16;57.43;;;21.40;;
21170;SDS011;10743;52.160;20.910;2022-11-20T15:20:46;62.57;;;22.83;;
21170;SDS011;10743;52.160;20.910;2022-11-20T15:23:15;52.10;;;19.87;;
21170;SDS011;10743;52.160;20.910;2022-11-20T15:25:47;67.00;;;22.93;;
21170;SDS011;10743;52.160;20.910;2022-11-20T15:28:23;59.10;;;21.43;;
21170;SDS011;10743;52.160;20.910;2022-11-20T15:31:01;62.03;;;22.80;;
21170;SDS011;10743;52.160;20.910;2022-11-20T15:33:30;62.17;;;23.40;;
21170;SDS011;10743;52.160;20.910;2022-11-20T15:35:58;50.80;;;20.47;;
21170;SDS011;10743;52.160;20.910;2022-11-20T15:38:25;55.63;;;21.57;;
21170;SDS011;10743;52.160;20.910;2022-11-20T15:40:52;63.17;;;20.73;;
21170;SDS011;10743;52.160;20.910;2022-11-20T15:43:19;54.63;;;21.27;;
21170;SDS011;10743;52.160;20.910;2022-11-20T15:45:47;56.30;;;19.83;;
21170;SDS011;10743;52.160;20.910;2022-11-20T15:48:29;62.33;;;21.17;;
21170;SDS011;10743;52.160;20.910;2022-11-20T15:53:38;48.40;;;19.60;;
21170;SDS011;10743;52.160;20.910;2022-11-20T15:56:08;55.50;;;19.97;;
21170;SDS011;10743;52.160;20.910;2022-11-20T15:58:38;56.57;;;20.73;;
21170;SDS011;10743;52.160;20.910;2022-11-20T16:01:10;56.90;;;20.17;;